sensor_id;sensor_type;location;lat;lon;timestamp;temperature;humidity
4643;DHT22;2334;48.710;9.622;2023-03-25T00:02:18;9.80;99.90
4643;DHT22;2334;48.710;9.622;2023-03-25T00:04:48;9.80;99.90
4643;DHT22;2334;48.710;9.622;2023-03-25T00:07:16;9.90;99.90
4643;DHT22;2334;48.710;9.622;2023-03-25T00:09:44;9.90;99.90
4643;DHT22;2334;48.710;9.622;2023-03-25T00:12:13;9.90;99.90
4643;DHT22;2334;48.710;9.622;2023-03-25T00:14:41;9.90;99.90
4643;DHT22;2334;48.710;9.622;2023-03-25T00:17:08;9.80;99.90
4643;DHT22;2334;48.710;9.622;2023-03-25T00:19:35;9.70;99.90
4643;DHT22;2334;48.710;9.622;2023-03-25T00:22:02;9.70;99.90
4643;DHT22;2334;48.710;9.622;2023-03-25T00:24:29;9.70;99.90
4643;DHT22;2334;48.710;9.622;2023-03-25T00:26:56;9.70;99.90
4643;DHT22;2334;48.710;9.622;2023-03-25T00:29:24;9.70;99.90
4643;DHT22;2334;48.710;9.622;2023-03-25T00:31:51;9.70;99.90
4643;DHT22;2334;48.710;9.622;2023-03-25T00:34:18;9.30;99.90
4643;DHT22;2334;48.710;9.622;2023-03-25T00:36:45;8.70;99.90
4643;DHT22;2334;48.710;9.622;2023-03-25T00:39:12;8.50;99.90
4643;DHT22;2334;48.710;9.622;2023-03-25T00:41:39;8.40;99.90
4643;DHT22;2334;48.710;9.622;2023-03-25T00:44:08;8.40;99.90
4643;DHT22;2334;48.710;9.622;2023-03-25T00:46:38;8.30;99.90
4643;DHT22;2334;48.710;9.622;2023-03-25T00:49:05;8.20;99.90
4643;DHT22;2334;48.710;9.622;2023-03-25T00:51:32;8.20;99.90
4643;DHT22;2334;48.710;9.622;2023-03-25T00:53:59;8.20;99.90
4643;DHT22;2334;48.710;9.622;2023-03-25T00:56:26;8.10;99.90
4643;DHT22;2334;48.710;9.622;2023-03-25T00:58:53;8.10;99.90
4643;DHT22;2334;48.710;9.622;2023-03-25T01:01:21;8.10;99.90
4643;DHT22;2334;48.710;9.622;2023-03-25T01:03:53;8.10;99.90
4643;DHT22;2334;48.710;9.622;2023-03-25T01:06:25;8.10;99.90
4643;DHT22;2334;48.710;9.622;2023-03-25T01:08:54;8.10;99.90
4643;DHT22;2334;48.710;9.622;2023-03-25T01:11:24;8.00;99.90
4643;DHT22;2334;48.710;9.622;2023-03-25T01:13:53;8.00;99.90
4643;DHT22;2334;48.710;9.622;2023-03-25T01:16:20;8.00;99.90
4643;DHT22;2334;48.710;9.622;2023-03-25T01:18:47;8.00;99.90
4643;DHT22;2334;48.710;9.622;2023-03-25T01:21:15;7.90;99.90
4643;DHT22;2334;48.710;9.622;2023-03-25T01:23:42;7.90;99.90
4643;DHT22;2334;48.710;9.622;2023-03-25T01:26:09;7.90;99.90
4643;DHT22;2334;48.710;9.622;2023-03-25T01:28:37;8.00;99.90
4643;DHT22;2334;48.710;9.622;2023-03-25T01:31:06;7.90;99.90
4643;DHT22;2334;48.710;9.622;2023-03-25T01:33:33;7.90;99.90
4643;DHT22;2334;48.710;9.622;2023-03-25T01:36:01;7.90;99.90
4643;DHT22;2334;48.710;9.622;2023-03-25T01:38:29;8.00;99.90
4643;DHT22;2334;48.710;9.622;2023-03-25T01:40:56;8.00;99.90
4643;DHT22;2334;48.710;9.622;2023-03-25T01:43:23;7.90;99.90
4643;DHT22;2334;48.710;9.622;2023-03-25T01:45:50;7.90;99.90
4643;DHT22;2334;48.710;9.622;2023-03-25T01:48:21;7.90;99.90
4643;DHT22;2334;48.710;9.622;2023-03-25T01:50:51;7.80;99.90
4643;DHT22;2334;48.710;9.622;2023-03-25T01:53:18;7.80;99.90
4643;DHT22;2334;48.710;9.622;2023-03-25T01:55:47;7.70;99.90
4643;DHT22;2334;48.710;9.622;2023-03-25T01:58:18;7.70;99.90
4643;DHT22;2334;48.710;9.622;2023-03-25T02:00:48;7.70;99.90
4643;DHT22;2334;48.710;9.622;2023-03-25T02:03:15;7.80;99.90
4643;DHT22;2334;48.710;9.622;2023-03-25T02:05:47;7.90;99.90
4643;DHT22;2334;48.710;9.622;2023-03-25T02:08:17;7.90;99.90
4643;DHT22;2334;48.710;9.622;2023-03-25T02:10:49;8.00;99.90
4643;DHT22;2334;48.710;9.622;2023-03-25T02:13:17;8.00;99.90
4643;DHT22;2334;48.710;9.622;2023-03-25T02:15:55;8.00;99.90
4643;DHT22;2334;48.710;9.622;2023-03-25T02:18:33;8.00;99.90
4643;DHT22;2334;48.710;9.622;2023-03-25T02:24:35;8.10;99.90
4643;DHT22;2334;48.710;9.622;2023-03-25T02:27:29;8.10;99.90
4643;DHT22;2334;48.710;9.622;2023-03-25T02:30:43;8.20;99.90
4643;DHT22;2334;48.710;9.622;2023-03-25T02:39:35;8.40;99.90
4643;DHT22;2334;48.710;9.622;2023-03-25T02:42:11;8.40;99.90
4643;DHT22;2334;48.710;9.622;2023-03-25T02:44:44;8.40;99.90
4643;DHT22;2334;48.710;9.622;2023-03-25T02:47:16;8.40;99.90
4643;DHT22;2334;48.710;9.622;2023-03-25T02:49:47;8.50;99.90
4643;DHT22;2334;48.710;9.622;2023-03-25T02:52:16;8.50;99.90
4643;DHT22;2334;48.710;9.622;2023-03-25T02:54:48;8.60;99.90
4643;DHT22;2334;48.710;9.622;2023-03-25T02:57:24;8.60;99.90
4643;DHT22;2334;48.710;9.622;2023-03-25T02:59:54;8.60;99.90
4643;DHT22;2334;48.710;9.622;2023-03-25T03:02:25;8.50;99.90
4643;DHT22;2334;48.710;9.622;2023-03-25T03:04:54;8.60;99.90
4643;DHT22;2334;48.710;9.622;2023-03-25T03:07:23;8.60;99.90
4643;DHT22;2334;48.710;9.622;2023-03-25T03:09:59;8.70;99.90
4643;DHT22;2334;48.710;9.622;2023-03-25T03:12:47;8.70;99.90
4643;DHT22;2334;48.710;9.622;2023-03-25T03:15:26;8.70;99.90
4643;DHT22;2334;48.710;9.622;2023-03-25T03:18:04;8.70;99.90
4643;DHT22;2334;48.710;9.622;2023-03-25T03:20:37;8.60;99.90
4643;DHT22;2334;48.710;9.622;2023-03-25T03:23:09;8.50;99.90
4643;DHT22;2334;48.710;9.622;2023-03-25T03:25:46;8.50;99.90
4643;DHT22;2334;48.710;9.622;2023-03-25T03:28:19;8.40;99.90
4643;DHT22;2334;48.710;9.622;2023-03-25T03:30:52;8.30;99.90
4643;DHT22;2334;48.710;9.622;2023-03-25T03:33:25;8.30;99.90
4643;DHT22;2334;48.710;9.622;2023-03-25T03:35:58;8.20;99.90
4643;DHT22;2334;48.710;9.622;2023-03-25T03:38:29;8.10;99.90
4643;DHT22;2334;48.710;9.622;2023-03-25T03:41:04;8.10;99.90
4643;DHT22;2334;48.710;9.622;2023-03-25T03:43:35;8.00;99.90
4643;DHT22;2334;48.710;9.622;2023-03-25T03:46:06;8.00;99.90
4643;DHT22;2334;48.710;9.622;2023-03-25T03:48:37;8.00;99.90
4643;DHT22;2334;48.710;9.622;2023-03-25T03:51:09;7.90;99.90
4643;DHT22;2334;48.710;9.622;2023-03-25T03:53:39;7.80;99.90
4643;DHT22;2334;48.710;9.622;2023-03-25T03:56:11;7.80;99.90
4643;DHT22;2334;48.710;9.622;2023-03-25T03:58:41;7.80;99.90
4643;DHT22;2334;48.710;9.622;2023-03-25T04:01:12;7.70;99.90
4643;DHT22;2334;48.710;9.622;2023-03-25T04:03:44;7.60;99.90
4643;DHT22;2334;48.710;9.622;2023-03-25T04:06:18;7.60;99.90
4643;DHT22;2334;48.710;9.622;2023-03-25T04:08:53;7.50;99.90
4643;DHT22;2334;48.710;9.622;2023-03-25T04:11:27;7.50;99.90
4643;DHT22;2334;48.710;9.622;2023-03-25T04:13:58;7.50;99.90
4643;DHT22;2334;48.710;9.622;2023-03-25T04:16:26;7.40;99.90
4643;DHT22;2334;48.710;9.622;2023-03-25T04:18:54;7.40;99.90
4643;DHT22;2334;48.710;9.622;2023-03-25T04:21:23;7.30;99.90
4643;DHT22;2334;48.710;9.622;2023-03-25T04:23:50;7.30;99.90
4643;DHT22;2334;48.710;9.622;2023-03-25T04:26:17;7.30;99.90
4643;DHT22;2334;48.710;9.622;2023-03-25T04:28:45;7.30;99.90
4643;DHT22;2334;48.710;9.622;2023-03-25T04:31:13;7.30;99.90
4643;DHT22;2334;48.710;9.622;2023-03-25T04:33:42;7.20;99.90
4643;DHT22;2334;48.710;9.622;2023-03-25T04:36:12;7.20;99.90
4643;DHT22;2334;48.710;9.622;2023-03-25T04:38:39;7.30;99.90
4643;DHT22;2334;48.710;9.622;2023-03-25T04:41:06;7.30;99.90
4643;DHT22;2334;48.710;9.622;2023-03-25T04:43:33;7.40;99.90
4643;DHT22;2334;48.710;9.622;2023-03-25T04:46:01;7.40;99.90
4643;DHT22;2334;48.710;9.622;2023-03-25T04:48:29;7.40;99.90
4643;DHT22;2334;48.710;9.622;2023-03-25T04:50:57;7.40;99.90
4643;DHT22;2334;48.710;9.622;2023-03-25T04:53:26;7.40;99.90
4643;DHT22;2334;48.710;9.622;2023-03-25T04:55:53;7.40;99.90
4643;DHT22;2334;48.710;9.622;2023-03-25T04:58:21;7.40;99.90
4643;DHT22;2334;48.710;9.622;2023-03-25T05:00:50;7.30;99.90
4643;DHT22;2334;48.710;9.622;2023-03-25T05:03:19;7.30;99.90
4643;DHT22;2334;48.710;9.622;2023-03-25T05:05:48;7.30;99.90
4643;DHT22;2334;48.710;9.622;2023-03-25T05:08:16;7.30;99.90
4643;DHT22;2334;48.710;9.622;2023-03-25T05:10:43;7.30;99.90
4643;DHT22;2334;48.710;9.622;2023-03-25T05:13:10;7.40;99.90
4643;DHT22;2334;48.710;9.622;2023-03-25T05:15:37;7.50;99.90
4643;DHT22;2334;48.710;9.622;2023-03-25T05:18:06;7.60;99.90
4643;DHT22;2334;48.710;9.622;2023-03-25T05:20:35;7.60;99.90
4643;DHT22;2334;48.710;9.622;2023-03-25T05:23:04;7.50;99.90
4643;DHT22;2334;48.710;9.622;2023-03-25T05:25:31;7.50;99.90
4643;DHT22;2334;48.710;9.622;2023-03-25T05:28:01;7.60;99.90
4643;DHT22;2334;48.710;9.622;2023-03-25T05:30:30;7.60;99.90
4643;DHT22;2334;48.710;9.622;2023-03-25T05:32:58;7.60;99.90
4643;DHT22;2334;48.710;9.622;2023-03-25T05:35:26;7.60;99.90
4643;DHT22;2334;48.710;9.622;2023-03-25T05:37:54;7.60;99.90
4643;DHT22;2334;48.710;9.622;2023-03-25T05:40:22;7.60;99.90
4643;DHT22;2334;48.710;9.622;2023-03-25T05:42:49;7.60;99.90
4643;DHT22;2334;48.710;9.622;2023-03-25T05:45:21;7.50;99.90
4643;DHT22;2334;48.710;9.622;2023-03-25T05:47:47;7.50;99.90
4643;DHT22;2334;48.710;9.622;2023-03-25T05:50:15;7.60;99.90
4643;DHT22;2334;48.710;9.622;2023-03-25T05:52:42;7.60;99.90
4643;DHT22;2334;48.710;9.622;2023-03-25T05:55:14;7.70;99.90
4643;DHT22;2334;48.710;9.622;2023-03-25T05:57:41;7.70;99.90
4643;DHT22;2334;48.710;9.622;2023-03-25T06:00:10;7.70;99.90
4643;DHT22;2334;48.710;9.622;2023-03-25T06:02:37;7.80;99.90
4643;DHT22;2334;48.710;9.622;2023-03-25T06:05:08;7.80;99.90
4643;DHT22;2334;48.710;9.622;2023-03-25T06:07:38;7.80;99.90
4643;DHT22;2334;48.710;9.622;2023-03-25T06:10:08;7.80;99.90
4643;DHT22;2334;48.710;9.622;2023-03-25T06:12:36;7.90;99.90
4643;DHT22;2334;48.710;9.622;2023-03-25T06:15:05;7.90;99.90
4643;DHT22;2334;48.710;9.622;2023-03-25T06:17:32;7.90;99.90
4643;DHT22;2334;48.710;9.622;2023-03-25T06:20:03;7.90;99.90
4643;DHT22;2334;48.710;9.622;2023-03-25T06:22:36;8.00;99.90
4643;DHT22;2334;48.710;9.622;2023-03-25T06:25:04;8.10;99.90
4643;DHT22;2334;48.710;9.622;2023-03-25T06:27:31;8.10;99.90
4643;DHT22;2334;48.710;9.622;2023-03-25T06:30:01;8.20;99.90
4643;DHT22;2334;48.710;9.622;2023-03-25T06:32:28;8.20;99.90
4643;DHT22;2334;48.710;9.622;2023-03-25T06:34:55;8.30;99.90
4643;DHT22;2334;48.710;9.622;2023-03-25T06:37:22;8.30;99.90
4643;DHT22;2334;48.710;9.622;2023-03-25T06:39:51;8.30;99.90
4643;DHT22;2334;48.710;9.622;2023-03-25T06:42:21;8.40;99.90
4643;DHT22;2334;48.710;9.622;2023-03-25T06:44:49;8.40;99.90
4643;DHT22;2334;48.710;9.622;2023-03-25T06:47:17;8.50;99.90
4643;DHT22;2334;48.710;9.622;2023-03-25T06:49:44;8.50;99.90
4643;DHT22;2334;48.710;9.622;2023-03-25T06:52:11;8.60;99.90
4643;DHT22;2334;48.710;9.622;2023-03-25T06:54:38;8.70;99.90
4643;DHT22;2334;48.710;9.622;2023-03-25T06:57:06;8.80;99.90
4643;DHT22;2334;48.710;9.622;2023-03-25T06:59:32;8.90;99.90
4643;DHT22;2334;48.710;9.622;2023-03-25T07:02:00;8.80;99.90
4643;DHT22;2334;48.710;9.622;2023-03-25T07:04:28;8.90;99.90
4643;DHT22;2334;48.710;9.622;2023-03-25T07:06:55;9.00;99.90
4643;DHT22;2334;48.710;9.622;2023-03-25T07:09:21;9.10;99.90
4643;DHT22;2334;48.710;9.622;2023-03-25T07:11:48;9.10;99.90
4643;DHT22;2334;48.710;9.622;2023-03-25T07:14:15;9.20;99.90
4643;DHT22;2334;48.710;9.622;2023-03-25T07:16:42;9.10;99.90
4643;DHT22;2334;48.710;9.622;2023-03-25T07:19:12;9.10;99.90
4643;DHT22;2334;48.710;9.622;2023-03-25T07:21:41;9.00;99.90
4643;DHT22;2334;48.710;9.622;2023-03-25T07:24:08;9.00;99.90
4643;DHT22;2334;48.710;9.622;2023-03-25T07:26:35;8.90;99.90
4643;DHT22;2334;48.710;9.622;2023-03-25T07:29:02;9.00;99.90
4643;DHT22;2334;48.710;9.622;2023-03-25T07:31:31;9.00;99.90
4643;DHT22;2334;48.710;9.622;2023-03-25T07:33:58;8.90;99.90
4643;DHT22;2334;48.710;9.622;2023-03-25T07:36:27;8.90;99.90
4643;DHT22;2334;48.710;9.622;2023-03-25T07:38:55;9.00;99.90
4643;DHT22;2334;48.710;9.622;2023-03-25T07:41:22;9.00;99.90
4643;DHT22;2334;48.710;9.622;2023-03-25T07:43:49;8.90;99.90
4643;DHT22;2334;48.710;9.622;2023-03-25T07:46:16;8.90;99.90
4643;DHT22;2334;48.710;9.622;2023-03-25T07:48:42;9.00;99.90
4643;DHT22;2334;48.710;9.622;2023-03-25T07:51:09;9.10;99.90
4643;DHT22;2334;48.710;9.622;2023-03-25T07:53:36;9.00;99.90
4643;DHT22;2334;48.710;9.622;2023-03-25T07:56:09;9.00;99.90
4643;DHT22;2334;48.710;9.622;2023-03-25T07:58:36;9.00;99.90
4643;DHT22;2334;48.710;9.622;2023-03-25T08:01:03;9.00;99.90
4643;DHT22;2334;48.710;9.622;2023-03-25T08:03:30;9.00;99.90
4643;DHT22;2334;48.710;9.622;2023-03-25T08:05:59;9.00;99.90
4643;DHT22;2334;48.710;9.622;2023-03-25T08:08:26;9.10;99.90
4643;DHT22;2334;48.710;9.622;2023-03-25T08:10:55;9.20;99.90
4643;DHT22;2334;48.710;9.622;2023-03-25T08:13:24;9.30;99.90
4643;DHT22;2334;48.710;9.622;2023-03-25T08:15:51;9.40;99.90
4643;DHT22;2334;48.710;9.622;2023-03-25T08:18:19;9.50;99.90
4643;DHT22;2334;48.710;9.622;2023-03-25T08:20:47;9.60;99.90
4643;DHT22;2334;48.710;9.622;2023-03-25T08:23:14;9.60;99.90
4643;DHT22;2334;48.710;9.622;2023-03-25T08:25:45;9.70;99.90
4643;DHT22;2334;48.710;9.622;2023-03-25T08:28:14;9.80;99.90
4643;DHT22;2334;48.710;9.622;2023-03-25T08:30:48;10.00;99.90
4643;DHT22;2334;48.710;9.622;2023-03-25T08:33:19;9.90;99.90
4643;DHT22;2334;48.710;9.622;2023-03-25T08:35:47;9.80;99.90
4643;DHT22;2334;48.710;9.622;2023-03-25T08:38:15;9.70;99.90
4643;DHT22;2334;48.710;9.622;2023-03-25T08:40:42;9.80;99.90
4643;DHT22;2334;48.710;9.622;2023-03-25T08:43:09;9.80;99.90
4643;DHT22;2334;48.710;9.622;2023-03-25T08:45:36;9.80;99.90
4643;DHT22;2334;48.710;9.622;2023-03-25T08:48:05;9.90;99.90
4643;DHT22;2334;48.710;9.622;2023-03-25T08:50:32;10.10;99.90
4643;DHT22;2334;48.710;9.622;2023-03-25T08:52:59;10.20;99.90
4643;DHT22;2334;48.710;9.622;2023-03-25T08:55:26;10.20;99.90
4643;DHT22;2334;48.710;9.622;2023-03-25T08:57:53;10.00;99.90
4643;DHT22;2334;48.710;9.622;2023-03-25T09:00:21;9.90;99.90
4643;DHT22;2334;48.710;9.622;2023-03-25T09:02:50;9.80;99.90
4643;DHT22;2334;48.710;9.622;2023-03-25T09:05:19;9.80;99.90
4643;DHT22;2334;48.710;9.622;2023-03-25T09:07:46;9.50;99.90
4643;DHT22;2334;48.710;9.622;2023-03-25T09:10:13;9.50;99.90
4643;DHT22;2334;48.710;9.622;2023-03-25T09:12:40;9.30;99.90
4643;DHT22;2334;48.710;9.622;2023-03-25T09:15:08;9.30;99.90
4643;DHT22;2334;48.710;9.622;2023-03-25T09:17:36;9.40;99.90
4643;DHT22;2334;48.710;9.622;2023-03-25T09:20:03;9.40;99.90
4643;DHT22;2334;48.710;9.622;2023-03-25T09:22:34;9.30;99.90
4643;DHT22;2334;48.710;9.622;2023-03-25T09:25:01;9.50;99.90
4643;DHT22;2334;48.710;9.622;2023-03-25T09:27:28;9.50;99.90
4643;DHT22;2334;48.710;9.622;2023-03-25T09:29:55;9.50;99.90
4643;DHT22;2334;48.710;9.622;2023-03-25T09:32:22;9.60;99.90
4643;DHT22;2334;48.710;9.622;2023-03-25T09:34:49;9.70;99.90
4643;DHT22;2334;48.710;9.622;2023-03-25T09:37:15;9.80;99.90
4643;DHT22;2334;48.710;9.622;2023-03-25T09:39:44;9.90;99.90
4643;DHT22;2334;48.710;9.622;2023-03-25T09:42:32;10.00;99.90
4643;DHT22;2334;48.710;9.622;2023-03-25T09:45:11;10.20;99.90
4643;DHT22;2334;48.710;9.622;2023-03-25T09:47:51;10.20;99.90
4643;DHT22;2334;48.710;9.622;2023-03-25T09:50:20;10.30;99.90
4643;DHT22;2334;48.710;9.622;2023-03-25T09:52:51;10.30;99.90
4643;DHT22;2334;48.710;9.622;2023-03-25T09:55:29;10.30;99.90
4643;DHT22;2334;48.710;9.622;2023-03-25T09:58:02;10.30;99.90
4643;DHT22;2334;48.710;9.622;2023-03-25T10:00:30;10.20;99.90
4643;DHT22;2334;48.710;9.622;2023-03-25T10:03:10;10.50;99.90
4643;DHT22;2334;48.710;9.622;2023-03-25T10:05:55;10.90;99.90
4643;DHT22;2334;48.710;9.622;2023-03-25T10:08:33;11.00;99.90
4643;DHT22;2334;48.710;9.622;2023-03-25T10:11:07;11.00;99.90
4643;DHT22;2334;48.710;9.622;2023-03-25T10:13:43;11.00;99.90
4643;DHT22;2334;48.710;9.622;2023-03-25T10:16:20;11.00;99.90
4643;DHT22;2334;48.710;9.622;2023-03-25T10:19:01;11.00;99.90
4643;DHT22;2334;48.710;9.622;2023-03-25T10:21:38;10.70;99.90
4643;DHT22;2334;48.710;9.622;2023-03-25T10:24:15;10.40;99.90
4643;DHT22;2334;48.710;9.622;2023-03-25T10:26:47;10.20;99.90
4643;DHT22;2334;48.710;9.622;2023-03-25T10:29:18;10.40;99.90
4643;DHT22;2334;48.710;9.622;2023-03-25T10:31:50;10.60;99.90
4643;DHT22;2334;48.710;9.622;2023-03-25T10:34:19;10.80;99.90
4643;DHT22;2334;48.710;9.622;2023-03-25T10:36:52;11.20;99.90
4643;DHT22;2334;48.710;9.622;2023-03-25T10:39:21;11.60;99.90
4643;DHT22;2334;48.710;9.622;2023-03-25T10:41:53;11.90;99.90
4643;DHT22;2334;48.710;9.622;2023-03-25T10:44:21;12.10;99.90
4643;DHT22;2334;48.710;9.622;2023-03-25T10:46:55;11.90;99.90
4643;DHT22;2334;48.710;9.622;2023-03-25T10:49:27;11.70;99.90
4643;DHT22;2334;48.710;9.622;2023-03-25T10:51:55;12.00;99.90
4643;DHT22;2334;48.710;9.622;2023-03-25T10:54:26;12.30;99.90
4643;DHT22;2334;48.710;9.622;2023-03-25T10:56:57;12.70;99.90
4643;DHT22;2334;48.710;9.622;2023-03-25T10:59:28;12.50;99.90
4643;DHT22;2334;48.710;9.622;2023-03-25T11:01:57;11.90;99.90
4643;DHT22;2334;48.710;9.622;2023-03-25T11:04:31;11.80;99.90
4643;DHT22;2334;48.710;9.622;2023-03-25T11:06:59;12.10;99.90
4643;DHT22;2334;48.710;9.622;2023-03-25T11:09:43;12.60;99.90
4643;DHT22;2334;48.710;9.622;2023-03-25T11:12:17;12.60;99.90
4643;DHT22;2334;48.710;9.622;2023-03-25T11:14:44;12.60;99.90
4643;DHT22;2334;48.710;9.622;2023-03-25T11:17:19;12.20;99.90
4643;DHT22;2334;48.710;9.622;2023-03-25T11:19:53;12.00;99.90
4643;DHT22;2334;48.710;9.622;2023-03-25T11:22:23;11.90;99.90
4643;DHT22;2334;48.710;9.622;2023-03-25T11:24:58;11.80;99.90
4643;DHT22;2334;48.710;9.622;2023-03-25T11:27:28;11.70;99.90
4643;DHT22;2334;48.710;9.622;2023-03-25T11:29:59;11.60;99.90
4643;DHT22;2334;48.710;9.622;2023-03-25T11:32:32;11.60;99.90
4643;DHT22;2334;48.710;9.622;2023-03-25T11:35:00;11.50;99.90
4643;DHT22;2334;48.710;9.622;2023-03-25T11:37:29;11.30;99.90
4643;DHT22;2334;48.710;9.622;2023-03-25T11:40:03;11.40;99.90
4643;DHT22;2334;48.710;9.622;2023-03-25T11:42:36;11.20;99.90
4643;DHT22;2334;48.710;9.622;2023-03-25T11:45:05;11.20;99.90
4643;DHT22;2334;48.710;9.622;2023-03-25T11:47:34;11.30;99.90
4643;DHT22;2334;48.710;9.622;2023-03-25T11:50:03;12.00;99.90
4643;DHT22;2334;48.710;9.622;2023-03-25T11:52:36;12.30;99.90
4643;DHT22;2334;48.710;9.622;2023-03-25T11:55:10;12.20;99.90
4643;DHT22;2334;48.710;9.622;2023-03-25T11:57:44;11.80;99.90
4643;DHT22;2334;48.710;9.622;2023-03-25T12:00:25;11.70;99.90
4643;DHT22;2334;48.710;9.622;2023-03-25T12:02:59;11.60;99.90
4643;DHT22;2334;48.710;9.622;2023-03-25T12:05:26;11.50;99.90
4643;DHT22;2334;48.710;9.622;2023-03-25T12:08:03;11.30;99.90
4643;DHT22;2334;48.710;9.622;2023-03-25T12:10:38;10.80;99.90
4643;DHT22;2334;48.710;9.622;2023-03-25T12:13:14;10.50;99.90
4643;DHT22;2334;48.710;9.622;2023-03-25T12:15:46;10.50;99.90
4643;DHT22;2334;48.710;9.622;2023-03-25T12:18:30;10.80;99.90
4643;DHT22;2334;48.710;9.622;2023-03-25T12:21:07;11.30;99.90
4643;DHT22;2334;48.710;9.622;2023-03-25T12:23:41;11.90;99.90
4643;DHT22;2334;48.710;9.622;2023-03-25T12:26:13;12.30;99.90
4643;DHT22;2334;48.710;9.622;2023-03-25T12:31:47;13.20;99.90
4643;DHT22;2334;48.710;9.622;2023-03-25T12:34:25;13.30;99.90
4643;DHT22;2334;48.710;9.622;2023-03-25T12:37:01;13.40;99.90
4643;DHT22;2334;48.710;9.622;2023-03-25T12:39:41;13.70;99.90
4643;DHT22;2334;48.710;9.622;2023-03-25T12:42:19;13.10;99.90
4643;DHT22;2334;48.710;9.622;2023-03-25T12:45:02;12.70;99.90
4643;DHT22;2334;48.710;9.622;2023-03-25T12:47:34;12.90;99.90
4643;DHT22;2334;48.710;9.622;2023-03-25T12:50:19;12.70;99.90
4643;DHT22;2334;48.710;9.622;2023-03-25T12:52:55;12.40;99.90
4643;DHT22;2334;48.710;9.622;2023-03-25T12:55:52;12.60;99.90
4643;DHT22;2334;48.710;9.622;2023-03-25T12:58:40;12.80;99.90
4643;DHT22;2334;48.710;9.622;2023-03-25T13:01:18;12.80;99.90
4643;DHT22;2334;48.710;9.622;2023-03-25T13:04:02;12.60;99.90
4643;DHT22;2334;48.710;9.622;2023-03-25T13:06:38;12.40;99.90
4643;DHT22;2334;48.710;9.622;2023-03-25T13:09:11;12.30;99.90
4643;DHT22;2334;48.710;9.622;2023-03-25T13:11:42;12.10;99.90
4643;DHT22;2334;48.710;9.622;2023-03-25T13:14:16;11.50;99.90
4643;DHT22;2334;48.710;9.622;2023-03-25T13:16:46;10.50;99.90
4643;DHT22;2334;48.710;9.622;2023-03-25T13:19:16;10.10;99.90
4643;DHT22;2334;48.710;9.622;2023-03-25T13:21:47;10.40;99.90
4643;DHT22;2334;48.710;9.622;2023-03-25T13:24:19;10.70;99.90
4643;DHT22;2334;48.710;9.622;2023-03-25T13:26:49;10.90;99.90
4643;DHT22;2334;48.710;9.622;2023-03-25T13:29:24;10.80;99.90
4643;DHT22;2334;48.710;9.622;2023-03-25T13:31:56;11.10;99.90
4643;DHT22;2334;48.710;9.622;2023-03-25T13:34:27;11.40;99.90
4643;DHT22;2334;48.710;9.622;2023-03-25T13:37:03;11.60;99.90
4643;DHT22;2334;48.710;9.622;2023-03-25T13:39:46;12.00;99.90
4643;DHT22;2334;48.710;9.622;2023-03-25T13:42:20;12.10;99.90
4643;DHT22;2334;48.710;9.622;2023-03-25T13:44:50;12.20;99.90
4643;DHT22;2334;48.710;9.622;2023-03-25T13:47:24;12.10;99.90
4643;DHT22;2334;48.710;9.622;2023-03-25T13:49:55;11.90;99.90
4643;DHT22;2334;48.710;9.622;2023-03-25T13:52:25;11.70;99.90
4643;DHT22;2334;48.710;9.622;2023-03-25T13:54:57;11.30;99.90
4643;DHT22;2334;48.710;9.622;2023-03-25T13:57:42;11.20;99.90
4643;DHT22;2334;48.710;9.622;2023-03-25T14:00:32;11.00;99.90
4643;DHT22;2334;48.710;9.622;2023-03-25T14:03:49;10.30;99.90
4643;DHT22;2334;48.710;9.622;2023-03-25T14:09:33;11.00;99.90
4643;DHT22;2334;48.710;9.622;2023-03-25T14:12:08;11.20;99.90
4643;DHT22;2334;48.710;9.622;2023-03-25T14:14:40;11.50;99.90
4643;DHT22;2334;48.710;9.622;2023-03-25T14:17:10;11.60;99.90
4643;DHT22;2334;48.710;9.622;2023-03-25T14:19:43;11.90;99.90
4643;DHT22;2334;48.710;9.622;2023-03-25T14:22:15;12.10;99.90
4643;DHT22;2334;48.710;9.622;2023-03-25T14:24:43;12.50;99.90
4643;DHT22;2334;48.710;9.622;2023-03-25T14:27:16;12.40;99.90
4643;DHT22;2334;48.710;9.622;2023-03-25T14:29:46;12.30;99.90
4643;DHT22;2334;48.710;9.622;2023-03-25T14:32:35;12.10;99.90
4643;DHT22;2334;48.710;9.622;2023-03-25T14:41:02;11.70;99.90
4643;DHT22;2334;48.710;9.622;2023-03-25T14:43:34;11.70;99.90
4643;DHT22;2334;48.710;9.622;2023-03-25T14:46:04;11.60;99.90
4643;DHT22;2334;48.710;9.622;2023-03-25T14:48:41;11.60;99.90
4643;DHT22;2334;48.710;9.622;2023-03-25T14:51:18;11.50;99.90
4643;DHT22;2334;48.710;9.622;2023-03-25T14:53:53;11.40;99.90
4643;DHT22;2334;48.710;9.622;2023-03-25T14:56:23;11.30;99.90
4643;DHT22;2334;48.710;9.622;2023-03-25T14:58:53;11.30;99.90
4643;DHT22;2334;48.710;9.622;2023-03-25T15:01:29;11.70;99.90
4643;DHT22;2334;48.710;9.622;2023-03-25T15:04:13;12.30;99.90
4643;DHT22;2334;48.710;9.622;2023-03-25T15:06:41;12.80;99.90
4643;DHT22;2334;48.710;9.622;2023-03-25T15:09:11;13.10;99.90
4643;DHT22;2334;48.710;9.622;2023-03-25T15:11:41;13.40;99.90
4643;DHT22;2334;48.710;9.622;2023-03-25T15:14:12;13.60;99.90
4643;DHT22;2334;48.710;9.622;2023-03-25T15:16:56;13.80;99.90
4643;DHT22;2334;48.710;9.622;2023-03-25T15:19:24;13.90;99.90
4643;DHT22;2334;48.710;9.622;2023-03-25T15:22:20;13.90;99.90
4643;DHT22;2334;48.710;9.622;2023-03-25T15:24:52;14.10;99.90
4643;DHT22;2334;48.710;9.622;2023-03-25T15:27:44;14.20;99.90
4643;DHT22;2334;48.710;9.622;2023-03-25T15:30:33;14.10;99.90
4643;DHT22;2334;48.710;9.622;2023-03-25T15:33:16;14.20;99.90
4643;DHT22;2334;48.710;9.622;2023-03-25T15:35:55;14.20;99.90
4643;DHT22;2334;48.710;9.622;2023-03-25T15:38:48;13.30;99.90
4643;DHT22;2334;48.710;9.622;2023-03-25T15:41:40;12.80;99.90
4643;DHT22;2334;48.710;9.622;2023-03-25T15:50:35;12.40;99.90
4643;DHT22;2334;48.710;9.622;2023-03-25T15:56:09;14.00;99.90
4643;DHT22;2334;48.710;9.622;2023-03-25T15:58:44;14.50;99.90
4643;DHT22;2334;48.710;9.622;2023-03-25T16:01:19;15.00;99.90
4643;DHT22;2334;48.710;9.622;2023-03-25T16:03:58;14.70;99.90
4643;DHT22;2334;48.710;9.622;2023-03-25T16:06:26;14.70;99.90
4643;DHT22;2334;48.710;9.622;2023-03-25T16:08:55;14.80;99.90
4643;DHT22;2334;48.710;9.622;2023-03-25T16:11:25;14.40;99.90
4643;DHT22;2334;48.710;9.622;2023-03-25T16:14:10;14.40;99.90
4643;DHT22;2334;48.710;9.622;2023-03-25T16:16:39;14.20;99.90
4643;DHT22;2334;48.710;9.622;2023-03-25T16:19:09;14.10;99.90
4643;DHT22;2334;48.710;9.622;2023-03-25T16:21:37;14.40;99.90
4643;DHT22;2334;48.710;9.622;2023-03-25T16:24:06;14.90;99.90
4643;DHT22;2334;48.710;9.622;2023-03-25T16:26:39;15.20;99.90
4643;DHT22;2334;48.710;9.622;2023-03-25T16:29:20;15.20;99.90
4643;DHT22;2334;48.710;9.622;2023-03-25T16:31:52;15.70;99.90
4643;DHT22;2334;48.710;9.622;2023-03-25T16:34:21;16.20;99.90
4643;DHT22;2334;48.710;9.622;2023-03-25T16:36:50;16.10;99.90
4643;DHT22;2334;48.710;9.622;2023-03-25T16:39:18;15.80;99.90
4643;DHT22;2334;48.710;9.622;2023-03-25T16:41:47;15.00;99.90
4643;DHT22;2334;48.710;9.622;2023-03-25T16:44:17;14.00;99.90
4643;DHT22;2334;48.710;9.622;2023-03-25T16:46:45;13.60;99.90
4643;DHT22;2334;48.710;9.622;2023-03-25T16:49:14;13.30;99.90
4643;DHT22;2334;48.710;9.622;2023-03-25T16:51:43;13.20;99.90
4643;DHT22;2334;48.710;9.622;2023-03-25T16:54:21;12.90;99.90
4643;DHT22;2334;48.710;9.622;2023-03-25T16:56:48;12.80;99.90
4643;DHT22;2334;48.710;9.622;2023-03-25T16:59:21;12.90;99.90
4643;DHT22;2334;48.710;9.622;2023-03-25T17:01:51;12.40;99.90
4643;DHT22;2334;48.710;9.622;2023-03-25T17:04:20;12.00;99.90
4643;DHT22;2334;48.710;9.622;2023-03-25T17:06:53;11.80;99.90
4643;DHT22;2334;48.710;9.622;2023-03-25T17:09:23;11.50;99.90